sensor_id;sensor_type;location;lat;lon;timestamp;pressure;altitude;pressure_sealevel;temperature;humidity
21290;BME280;10804;48.988;2.408;2024-03-23T00:55:42;100809.56;;;15.28;71.42
21290;BME280;10804;48.988;2.408;2024-03-23T00:58:08;100799.22;;;15.25;71.37
21290;BME280;10804;48.988;2.408;2024-03-23T01:00:36;100792.31;;;15.22;71.35
21290;BME280;10804;48.988;2.408;2024-03-23T01:03:03;100793.34;;;15.18;71.51
21290;BME280;10804;48.988;2.408;2024-03-23T01:05:32;100797.75;;;15.18;71.26
21290;BME280;10804;48.988;2.408;2024-03-23T01:07:59;100798.75;;;15.15;71.40
21290;BME280;10804;48.988;2.408;2024-03-23T01:10:30;100798.06;;;15.10;71.47
21290;BME280;10804;48.988;2.408;2024-03-23T01:12:56;100808.69;;;15.09;71.49
21290;BME280;10804;48.988;2.408;2024-03-23T01:15:24;100796.53;;;15.06;71.60
21290;BME280;10804;48.988;2.408;2024-03-23T01:17:50;100786.41;;;14.97;71.51
21290;BME280;10804;48.988;2.408;2024-03-23T01:20:17;100788.91;;;15.00;71.48
21290;BME280;10804;48.988;2.408;2024-03-23T01:22:44;100797.75;;;14.98;71.95
21290;BME280;10804;48.988;2.408;2024-03-23T01:25:11;100794.34;;;14.96;71.90
21290;BME280;10804;48.988;2.408;2024-03-23T01:27:39;100797.03;;;14.94;71.83
21290;BME280;10804;48.988;2.408;2024-03-23T01:30:07;100803.25;;;14.92;71.61
21290;BME280;10804;48.988;2.408;2024-03-23T01:32:33;100795.47;;;14.90;71.98
21290;BME280;10804;48.988;2.408;2024-03-23T01:35:01;100799.91;;;14.88;71.90
21290;BME280;10804;48.988;2.408;2024-03-23T01:37:27;100791.38;;;14.83;71.98
21290;BME280;10804;48.988;2.408;2024-03-23T01:39:54;100796.63;;;14.83;71.84
21290;BME280;10804;48.988;2.408;2024-03-23T01:42:21;100793.22;;;14.81;71.80
21290;BME280;10804;48.988;2.408;2024-03-23T01:44:49;100793.34;;;14.78;72.04
21290;BME280;10804;48.988;2.408;2024-03-23T01:47:16;100795.97;;;14.78;71.87
21290;BME280;10804;48.988;2.408;2024-03-23T01:49:43;100793.41;;;14.77;71.76
21290;BME280;10804;48.988;2.408;2024-03-23T01:52:10;100794.31;;;14.76;71.82
21290;BME280;10804;48.988;2.408;2024-03-23T01:54:38;100789.19;;;14.73;71.95
21290;BME280;10804;48.988;2.408;2024-03-23T01:57:04;100804.91;;;14.74;71.95
21290;BME280;10804;48.988;2.408;2024-03-23T01:59:32;100795.44;;;14.70;71.71
21290;BME280;10804;48.988;2.408;2024-03-23T02:02:00;100790.19;;;14.70;71.93
21290;BME280;10804;48.988;2.408;2024-03-23T02:04:29;100798.97;;;14.69;72.00
21290;BME280;10804;48.988;2.408;2024-03-23T02:06:55;100809.63;;;14.66;71.63
21290;BME280;10804;48.988;2.408;2024-03-23T02:09:23;100804.38;;;14.66;72.17
21290;BME280;10804;48.988;2.408;2024-03-23T02:11:49;100800.09;;;14.64;71.91
21290;BME280;10804;48.988;2.408;2024-03-23T02:14:16;100806.16;;;14.64;71.88
21290;BME280;10804;48.988;2.408;2024-03-23T02:16:43;100803.69;;;14.61;71.71
21290;BME280;10804;48.988;2.408;2024-03-23T02:19:11;100812.47;;;14.60;71.87
21290;BME280;10804;48.988;2.408;2024-03-23T02:21:38;100817.72;;;14.60;71.95
21290;BME280;10804;48.988;2.408;2024-03-23T02:24:07;100809.84;;;14.60;71.89
21290;BME280;10804;48.988;2.408;2024-03-23T02:26:34;100811.69;;;14.58;71.95
21290;BME280;10804;48.988;2.408;2024-03-23T02:29:03;100812.66;;;14.56;71.89
21290;BME280;10804;48.988;2.408;2024-03-23T02:31:29;100810.16;;;14.53;71.80
21290;BME280;10804;48.988;2.408;2024-03-23T02:33:57;100815.41;;;14.53;71.83
21290;BME280;10804;48.988;2.408;2024-03-23T02:36:23;100817.19;;;14.52;71.85
21290;BME280;10804;48.988;2.408;2024-03-23T02:38:50;100811.22;;;14.49;72.02
21290;BME280;10804;48.988;2.408;2024-03-23T02:41:18;100810.34;;;14.48;71.91
21290;BME280;10804;48.988;2.408;2024-03-23T02:43:49;100812.03;;;14.49;71.98
21290;BME280;10804;48.988;2.408;2024-03-23T02:46:15;100822.69;;;14.46;71.85
21290;BME280;10804;48.988;2.408;2024-03-23T02:48:43;100826.28;;;14.44;71.85
21290;BME280;10804;48.988;2.408;2024-03-23T02:51:09;100833.31;;;14.43;71.75
21290;BME280;10804;48.988;2.408;2024-03-23T02:53:37;100825.50;;;14.42;71.89
21290;BME280;10804;48.988;2.408;2024-03-23T02:56:04;100823.88;;;14.38;71.67
21290;BME280;10804;48.988;2.408;2024-03-23T02:58:32;100817.81;;;14.37;71.73
21290;BME280;10804;48.988;2.408;2024-03-23T03:00:59;100831.84;;;14.36;71.72
21290;BME280;10804;48.988;2.408;2024-03-23T03:03:26;100830.19;;;14.34;71.81
21290;BME280;10804;48.988;2.408;2024-03-23T03:05:55;100838.06;;;14.34;72.03
21290;BME280;10804;48.988;2.408;2024-03-23T03:08:22;100840.72;;;14.32;71.76
21290;BME280;10804;48.988;2.408;2024-03-23T03:10:48;100845.25;;;14.29;71.75
21290;BME280;10804;48.988;2.408;2024-03-23T03:13:16;100850.47;;;14.29;71.83
21290;BME280;10804;48.988;2.408;2024-03-23T03:15:44;100849.75;;;14.25;72.32
21290;BME280;10804;48.988;2.408;2024-03-23T03:18:11;100841.09;;;14.23;71.87
21290;BME280;10804;48.988;2.408;2024-03-23T03:20:38;100848.16;;;14.21;72.00
21290;BME280;10804;48.988;2.408;2024-03-23T03:23:06;100850.84;;;14.20;71.58
21290;BME280;10804;48.988;2.408;2024-03-23T03:25:33;100848.38;;;14.15;72.04
21290;BME280;10804;48.988;2.408;2024-03-23T03:28:00;100861.63;;;14.12;71.88
21290;BME280;10804;48.988;2.408;2024-03-23T03:30:27;100863.38;;;14.12;71.95
21290;BME280;10804;48.988;2.408;2024-03-23T03:32:56;100861.66;;;14.11;71.77
21290;BME280;10804;48.988;2.408;2024-03-23T03:35:22;100859.22;;;14.06;72.10
21290;BME280;10804;48.988;2.408;2024-03-23T03:37:50;100854.06;;;14.03;72.11
21290;BME280;10804;48.988;2.408;2024-03-23T03:40:16;100857.59;;;14.02;71.93
21290;BME280;10804;48.988;2.408;2024-03-23T03:42:44;100862.97;;;13.99;71.65
21290;BME280;10804;48.988;2.408;2024-03-23T03:45:10;100867.31;;;14.00;72.52
21290;BME280;10804;48.988;2.408;2024-03-23T03:47:37;100862.22;;;13.96;72.20
21290;BME280;10804;48.988;2.408;2024-03-23T03:50:06;100868.44;;;13.93;72.16
21290;BME280;10804;48.988;2.408;2024-03-23T03:52:34;100876.44;;;13.90;72.13
21290;BME280;10804;48.988;2.408;2024-03-23T03:55:02;100888.66;;;13.90;72.42
21290;BME280;10804;48.988;2.408;2024-03-23T03:57:29;100884.50;;;13.84;72.23
21290;BME280;10804;48.988;2.408;2024-03-23T03:59:56;100886.34;;;13.82;72.45
21290;BME280;10804;48.988;2.408;2024-03-23T04:02:23;100891.59;;;13.82;72.21
21290;BME280;10804;48.988;2.408;2024-03-23T04:04:52;100889.97;;;13.78;72.53
21290;BME280;10804;48.988;2.408;2024-03-23T04:07:21;100894.44;;;13.76;72.59
21290;BME280;10804;48.988;2.408;2024-03-23T04:09:48;100895.44;;;13.72;72.08
21290;BME280;10804;48.988;2.408;2024-03-23T04:12:16;100899.84;;;13.72;72.32
21290;BME280;10804;48.988;2.408;2024-03-23T04:14:42;100900.75;;;13.71;72.54
21290;BME280;10804;48.988;2.408;2024-03-23T04:17:10;100905.28;;;13.66;72.35
21290;BME280;10804;48.988;2.408;2024-03-23T04:19:36;100912.28;;;13.65;72.60
21290;BME280;10804;48.988;2.408;2024-03-23T04:22:04;100907.16;;;13.62;72.47
21290;BME280;10804;48.988;2.408;2024-03-23T04:24:32;100901.13;;;13.60;72.67
21290;BME280;10804;48.988;2.408;2024-03-23T04:26:59;100902.06;;;13.58;72.59
21290;BME280;10804;48.988;2.408;2024-03-23T04:29:26;100904.88;;;13.53;72.62
21290;BME280;10804;48.988;2.408;2024-03-23T04:31:53;100901.31;;;13.54;72.48
21290;BME280;10804;48.988;2.408;2024-03-23T04:34:21;100905.81;;;13.51;72.70
21290;BME280;10804;48.988;2.408;2024-03-23T04:36:49;100898.00;;;13.49;72.71
21290;BME280;10804;48.988;2.408;2024-03-23T04:39:15;100899.94;;;13.44;72.59
21290;BME280;10804;48.988;2.408;2024-03-23T04:41:45;100909.56;;;13.44;72.59
21290;BME280;10804;48.988;2.408;2024-03-23T04:44:12;100900.03;;;13.41;72.63
21290;BME280;10804;48.988;2.408;2024-03-23T04:46:39;100907.09;;;13.39;72.51
21290;BME280;10804;48.988;2.408;2024-03-23T04:49:07;100899.25;;;13.39;72.77
21290;BME280;10804;48.988;2.408;2024-03-23T04:51:35;100908.97;;;13.36;72.64
21290;BME280;10804;48.988;2.408;2024-03-23T04:54:03;100916.88;;;13.34;72.77
21290;BME280;10804;48.988;2.408;2024-03-23T04:56:31;100923.00;;;13.33;72.70
21290;BME280;10804;48.988;2.408;2024-03-23T04:59:00;100916.19;;;13.29;72.36
21290;BME280;10804;48.988;2.408;2024-03-23T05:01:27;100918.84;;;13.28;72.81
21290;BME280;10804;48.988;2.408;2024-03-23T05:03:55;100914.56;;;13.25;72.60
21290;BME280;10804;48.988;2.408;2024-03-23T05:06:21;100924.25;;;13.23;72.73
21290;BME280;10804;48.988;2.408;2024-03-23T05:08:49;100926.00;;;13.23;73.21
21290;BME280;10804;48.988;2.408;2024-03-23T05:11:15;100927.94;;;13.18;72.80
21290;BME280;10804;48.988;2.408;2024-03-23T05:13:43;100921.84;;;13.16;72.76
21290;BME280;10804;48.988;2.408;2024-03-23T05:16:11;100935.03;;;13.14;72.97
21290;BME280;10804;48.988;2.408;2024-03-23T05:18:38;100932.41;;;13.14;72.70
21290;BME280;10804;48.988;2.408;2024-03-23T05:21:04;100931.53;;;13.14;72.71
21290;BME280;10804;48.988;2.408;2024-03-23T05:23:32;100935.09;;;13.11;73.20
21290;BME280;10804;48.988;2.408;2024-03-23T05:25:58;100932.59;;;13.08;72.91
21290;BME280;10804;48.988;2.408;2024-03-23T05:28:25;100947.50;;;13.06;73.10
21290;BME280;10804;48.988;2.408;2024-03-23T05:30:52;100940.59;;;13.04;73.22
21290;BME280;10804;48.988;2.408;2024-03-23T05:33:21;100941.53;;;13.03;73.05
21290;BME280;10804;48.988;2.408;2024-03-23T05:35:56;100937.22;;;13.00;73.10
21290;BME280;10804;48.988;2.408;2024-03-23T05:38:24;100938.97;;;13.00;72.89
21290;BME280;10804;48.988;2.408;2024-03-23T05:40:54;100944.31;;;12.97;73.30
21290;BME280;10804;48.988;2.408;2024-03-23T05:43:21;100942.66;;;12.94;73.22
21290;BME280;10804;48.988;2.408;2024-03-23T05:45:53;100951.38;;;12.95;73.08
21290;BME280;10804;48.988;2.408;2024-03-23T05:48:22;100950.59;;;12.91;73.01
21290;BME280;10804;48.988;2.408;2024-03-23T05:50:49;100952.38;;;12.89;73.16
21290;BME280;10804;48.988;2.408;2024-03-23T05:53:20;100954.19;;;12.87;73.12
21290;BME280;10804;48.988;2.408;2024-03-23T05:55:47;100955.97;;;12.87;73.24
21290;BME280;10804;48.988;2.408;2024-03-23T05:58:15;100949.06;;;12.84;73.06
21290;BME280;10804;48.988;2.408;2024-03-23T06:00:41;100956.13;;;12.82;73.33
21290;BME280;10804;48.988;2.408;2024-03-23T06:03:09;100971.88;;;12.79;73.00
21290;BME280;10804;48.988;2.408;2024-03-23T06:05:37;100981.53;;;12.79;73.39
21290;BME280;10804;48.988;2.408;2024-03-23T06:08:05;100979.00;;;12.74;72.94
21290;BME280;10804;48.988;2.408;2024-03-23T06:10:32;100988.59;;;12.75;73.11
21290;BME280;10804;48.988;2.408;2024-03-23T06:12:59;100981.63;;;12.74;73.44
21290;BME280;10804;48.988;2.408;2024-03-23T06:15:26;100990.38;;;12.73;73.40
21290;BME280;10804;48.988;2.408;2024-03-23T06:17:53;100983.44;;;12.72;73.26
21290;BME280;10804;48.988;2.408;2024-03-23T06:20:19;100987.91;;;12.69;73.10
21290;BME280;10804;48.988;2.408;2024-03-23T06:22:48;100986.25;;;12.66;73.34
21290;BME280;10804;48.988;2.408;2024-03-23T06:25:15;100994.09;;;12.66;73.32
21290;BME280;10804;48.988;2.408;2024-03-23T06:27:42;100995.00;;;12.65;73.43
21290;BME280;10804;48.988;2.408;2024-03-23T06:30:09;100993.28;;;12.64;73.28
21290;BME280;10804;48.988;2.408;2024-03-23T06:32:37;100994.16;;;12.65;73.13
21290;BME280;10804;48.988;2.408;2024-03-23T06:35:04;101003.84;;;12.61;72.91
21290;BME280;10804;48.988;2.408;2024-03-23T06:37:35;101004.66;;;12.63;73.37
21290;BME280;10804;48.988;2.408;2024-03-23T06:40:03;100993.53;;;12.57;73.50
21290;BME280;10804;48.988;2.408;2024-03-23T06:42:34;101010.03;;;12.59;73.00
21290;BME280;10804;48.988;2.408;2024-03-23T06:45:01;101011.88;;;12.55;73.33
21290;BME280;10804;48.988;2.408;2024-03-23T06:47:28;101004.00;;;12.57;73.33
21290;BME280;10804;48.988;2.408;2024-03-23T06:49:54;101015.22;;;12.60;73.56
21290;BME280;10804;48.988;2.408;2024-03-23T06:52:22;101020.63;;;12.54;73.29
21290;BME280;10804;48.988;2.408;2024-03-23T06:54:48;101016.22;;;12.56;73.21
21290;BME280;10804;48.988;2.408;2024-03-23T06:57:17;101026.72;;;12.55;73.23
21290;BME280;10804;48.988;2.408;2024-03-23T06:59:43;101022.38;;;12.54;73.16
21290;BME280;10804;48.988;2.408;2024-03-23T07:02:11;101017.13;;;12.55;73.16
21290;BME280;10804;48.988;2.408;2024-03-23T07:04:37;101022.38;;;12.54;73.22
21290;BME280;10804;48.988;2.408;2024-03-23T07:07:05;101035.53;;;12.52;73.19
21290;BME280;10804;48.988;2.408;2024-03-23T07:09:31;101038.16;;;12.52;73.23
21290;BME280;10804;48.988;2.408;2024-03-23T07:11:59;101041.59;;;12.53;73.39
21290;BME280;10804;48.988;2.408;2024-03-23T07:14:27;101039.03;;;12.51;72.93
21290;BME280;10804;48.988;2.408;2024-03-23T07:16:54;101028.56;;;12.51;73.31
21290;BME280;10804;48.988;2.408;2024-03-23T07:19:20;101027.75;;;12.49;73.17
21290;BME280;10804;48.988;2.408;2024-03-23T07:21:48;101032.94;;;12.51;73.17
21290;BME280;10804;48.988;2.408;2024-03-23T07:24:14;101033.78;;;12.51;72.95
21290;BME280;10804;48.988;2.408;2024-03-23T07:26:42;101029.44;;;12.52;73.01
21290;BME280;10804;48.988;2.408;2024-03-23T07:29:08;101031.13;;;12.53;72.95
21290;BME280;10804;48.988;2.408;2024-03-23T07:31:37;101023.25;;;12.54;72.88
21290;BME280;10804;48.988;2.408;2024-03-23T07:34:04;101028.47;;;12.54;73.13
21290;BME280;10804;48.988;2.408;2024-03-23T07:36:32;101030.28;;;12.52;72.93
21290;BME280;10804;48.988;2.408;2024-03-23T07:38:58;101029.28;;;12.56;72.97
21290;BME280;10804;48.988;2.408;2024-03-23T07:41:26;101028.31;;;12.60;73.05
21290;BME280;10804;48.988;2.408;2024-03-23T07:43:53;101029.16;;;12.61;73.06
21290;BME280;10804;48.988;2.408;2024-03-23T07:46:21;101031.72;;;12.62;72.89
21290;BME280;10804;48.988;2.408;2024-03-23T07:48:48;101029.09;;;12.64;72.62
21290;BME280;10804;48.988;2.408;2024-03-23T07:51:17;101026.47;;;12.64;72.83
21290;BME280;10804;48.988;2.408;2024-03-23T07:53:44;101023.00;;;12.62;72.86
21290;BME280;10804;48.988;2.408;2024-03-23T07:56:12;101015.03;;;12.66;72.69
21290;BME280;10804;48.988;2.408;2024-03-23T07:58:41;101017.56;;;12.69;72.62
21290;BME280;10804;48.988;2.408;2024-03-23T08:01:10;101032.41;;;12.69;72.68
21290;BME280;10804;48.988;2.408;2024-03-23T08:03:37;101031.47;;;12.71;72.86
21290;BME280;10804;48.988;2.408;2024-03-23T08:06:11;101033.13;;;12.74;72.42
21290;BME280;10804;48.988;2.408;2024-03-23T08:08:38;101034.81;;;12.76;72.52
21290;BME280;10804;48.988;2.408;2024-03-23T08:11:06;101027.75;;;12.78;72.78
21290;BME280;10804;48.988;2.408;2024-03-23T08:13:33;101029.47;;;12.79;72.33
21290;BME280;10804;48.988;2.408;2024-03-23T08:16:02;101032.00;;;12.82;72.65
21290;BME280;10804;48.988;2.408;2024-03-23T08:18:29;101037.19;;;12.84;72.59
21290;BME280;10804;48.988;2.408;2024-03-23T08:20:57;101032.81;;;12.84;72.29
21290;BME280;10804;48.988;2.408;2024-03-23T08:23:25;101035.28;;;12.89;72.47
21290;BME280;10804;48.988;2.408;2024-03-23T08:25:57;101039.63;;;12.90;72.29
21290;BME280;10804;48.988;2.408;2024-03-23T08:28:24;101040.50;;;12.90;72.33
21290;BME280;10804;48.988;2.408;2024-03-23T08:30:52;101048.25;;;12.93;72.37
21290;BME280;10804;48.988;2.408;2024-03-23T08:33:19;101043.00;;;12.93;72.62
21290;BME280;10804;48.988;2.408;2024-03-23T08:35:53;101042.94;;;12.96;72.42
21290;BME280;10804;48.988;2.408;2024-03-23T08:38:20;101055.03;;;13.00;72.36
21290;BME280;10804;48.988;2.408;2024-03-23T08:40:56;101060.25;;;13.02;72.30
21290;BME280;10804;48.988;2.408;2024-03-23T08:43:22;101054.03;;;13.04;71.86
21290;BME280;10804;48.988;2.408;2024-03-23T08:45:50;101057.50;;;13.06;72.02
21290;BME280;10804;48.988;2.408;2024-03-23T08:48:16;101053.88;;;13.09;72.05
21290;BME280;10804;48.988;2.408;2024-03-23T08:50:43;101058.19;;;13.11;72.06
21290;BME280;10804;48.988;2.408;2024-03-23T08:53:10;101048.53;;;13.13;71.93
21290;BME280;10804;48.988;2.408;2024-03-23T08:55:37;101050.19;;;13.16;71.74
21290;BME280;10804;48.988;2.408;2024-03-23T08:58:05;101057.09;;;13.18;72.03
21290;BME280;10804;48.988;2.408;2024-03-23T09:00:34;101058.75;;;13.21;71.59
21290;BME280;10804;48.988;2.408;2024-03-23T09:03:00;101052.56;;;13.23;71.86
21290;BME280;10804;48.988;2.408;2024-03-23T09:05:28;101052.53;;;13.25;71.60
21290;BME280;10804;48.988;2.408;2024-03-23T09:07:56;101051.63;;;13.26;71.77
21290;BME280;10804;48.988;2.408;2024-03-23T09:10:24;101054.09;;;13.30;71.73
21290;BME280;10804;48.988;2.408;2024-03-23T09:12:50;101042.00;;;13.26;71.79
21290;BME280;10804;48.988;2.408;2024-03-23T09:15:19;101052.28;;;13.32;71.63
21290;BME280;10804;48.988;2.408;2024-03-23T09:17:46;101044.38;;;13.34;71.60
21290;BME280;10804;48.988;2.408;2024-03-23T09:20:13;101046.09;;;13.35;71.63
21290;BME280;10804;48.988;2.408;2024-03-23T09:22:39;101043.38;;;13.38;71.66
21290;BME280;10804;48.988;2.408;2024-03-23T09:25:07;101039.00;;;13.38;71.56
21290;BME280;10804;48.988;2.408;2024-03-23T09:27:34;101045.84;;;13.42;71.47
21290;BME280;10804;48.988;2.408;2024-03-23T09:30:01;101039.72;;;13.43;71.82
21290;BME280;10804;48.988;2.408;2024-03-23T09:32:30;101033.41;;;13.49;72.09
21290;BME280;10804;48.988;2.408;2024-03-23T09:34:58;101020.25;;;13.50;71.86
21290;BME280;10804;48.988;2.408;2024-03-23T09:37:24;101023.69;;;13.52;71.71
21290;BME280;10804;48.988;2.408;2024-03-23T09:39:51;101020.03;;;13.56;71.81
21290;BME280;10804;48.988;2.408;2024-03-23T09:42:18;101025.19;;;13.59;71.95
21290;BME280;10804;48.988;2.408;2024-03-23T09:44:45;101029.47;;;13.62;71.83
21290;BME280;10804;48.988;2.408;2024-03-23T09:47:12;101057.41;;;13.63;71.88
21290;BME280;10804;48.988;2.408;2024-03-23T09:49:41;101031.97;;;13.66;72.25
21290;BME280;10804;48.988;2.408;2024-03-23T09:52:07;101038.03;;;13.67;71.77
21290;BME280;10804;48.988;2.408;2024-03-23T09:54:35;101032.69;;;13.70;71.94
21290;BME280;10804;48.988;2.408;2024-03-23T09:57:01;101030.94;;;13.70;71.87
21290;BME280;10804;48.988;2.408;2024-03-23T09:59:29;101023.06;;;13.70;72.00
21290;BME280;10804;48.988;2.408;2024-03-23T10:01:55;101026.47;;;13.72;72.03
21290;BME280;10804;48.988;2.408;2024-03-23T10:04:36;101016.00;;;13.72;72.09
21290;BME280;10804;48.988;2.408;2024-03-23T10:07:12;101008.09;;;13.74;72.04
21290;BME280;10804;48.988;2.408;2024-03-23T10:09:40;101014.25;;;13.73;72.20
21290;BME280;10804;48.988;2.408;2024-03-23T10:12:11;101017.66;;;13.75;72.04
21290;BME280;10804;48.988;2.408;2024-03-23T10:14:40;101007.22;;;13.73;71.81
21290;BME280;10804;48.988;2.408;2024-03-23T10:17:15;101016.81;;;13.74;71.86
21290;BME280;10804;48.988;2.408;2024-03-23T10:19:45;101012.38;;;13.76;71.85
21290;BME280;10804;48.988;2.408;2024-03-23T10:22:14;101001.91;;;13.76;71.63
21290;BME280;10804;48.988;2.408;2024-03-23T10:24:42;101008.84;;;13.77;71.71
21290;BME280;10804;48.988;2.408;2024-03-23T10:27:08;101005.31;;;13.78;71.72
21290;BME280;10804;48.988;2.408;2024-03-23T10:29:35;101003.47;;;13.80;71.95
21290;BME280;10804;48.988;2.408;2024-03-23T10:32:08;101003.47;;;13.80;71.81
21290;BME280;10804;48.988;2.408;2024-03-23T10:34:36;101006.94;;;13.82;71.69
21290;BME280;10804;48.988;2.408;2024-03-23T10:37:04;100999.88;;;13.84;71.78
21290;BME280;10804;48.988;2.408;2024-03-23T10:39:35;100998.84;;;13.88;71.59
21290;BME280;10804;48.988;2.408;2024-03-23T10:42:03;100992.72;;;13.89;71.44
21290;BME280;10804;48.988;2.408;2024-03-23T10:44:31;100999.59;;;13.92;71.50
21290;BME280;10804;48.988;2.408;2024-03-23T10:46:58;100995.09;;;13.95;71.68
21290;BME280;10804;48.988;2.408;2024-03-23T10:49:30;100972.31;;;13.97;71.45
21290;BME280;10804;48.988;2.408;2024-03-23T10:51:58;100967.88;;;13.99;71.24
21290;BME280;10804;48.988;2.408;2024-03-23T10:54:26;100957.25;;;14.02;71.12
21290;BME280;10804;48.988;2.408;2024-03-23T10:56:57;100960.66;;;14.04;71.48
21290;BME280;10804;48.988;2.408;2024-03-23T10:59:27;100955.41;;;14.04;71.15
21290;BME280;10804;48.988;2.408;2024-03-23T11:01:54;100946.69;;;14.05;71.28
21290;BME280;10804;48.988;2.408;2024-03-23T11:04:33;100938.69;;;14.08;71.30
21290;BME280;10804;48.988;2.408;2024-03-23T11:07:00;100927.22;;;14.11;71.29
21290;BME280;10804;48.988;2.408;2024-03-23T11:09:41;100929.81;;;14.12;71.21
21290;BME280;10804;48.988;2.408;2024-03-23T11:12:27;100922.72;;;14.14;71.26
21290;BME280;10804;48.988;2.408;2024-03-23T11:15:00;100922.66;;;14.16;71.02
21290;BME280;10804;48.988;2.408;2024-03-23T11:17:27;100920.91;;;14.16;71.09
21290;BME280;10804;48.988;2.408;2024-03-23T11:19:56;100928.66;;;14.19;71.02
21290;BME280;10804;48.988;2.408;2024-03-23T11:22:47;100932.13;;;14.21;71.13
21290;BME280;10804;48.988;2.408;2024-03-23T11:25:18;100923.31;;;14.22;70.81
21290;BME280;10804;48.988;2.408;2024-03-23T11:27:49;100918.09;;;14.22;70.86
21290;BME280;10804;48.988;2.408;2024-03-23T11:30:17;100925.94;;;14.22;70.86
21290;BME280;10804;48.988;2.408;2024-03-23T11:32:45;100909.28;;;14.23;70.82
21290;BME280;10804;48.988;2.408;2024-03-23T11:35:25;100908.38;;;14.24;70.77
21290;BME280;10804;48.988;2.408;2024-03-23T11:38:05;100893.44;;;14.26;70.86
21290;BME280;10804;48.988;2.408;2024-03-23T11:40:33;100893.44;;;14.26;70.64
21290;BME280;10804;48.988;2.408;2024-03-23T11:43:02;100902.94;;;14.29;70.66
21290;BME280;10804;48.988;2.408;2024-03-23T11:45:34;100888.00;;;14.31;70.80
21290;BME280;10804;48.988;2.408;2024-03-23T11:48:02;100884.41;;;14.33;70.75
21290;BME280;10804;48.988;2.408;2024-03-23T11:50:30;100892.28;;;14.33;70.23
21290;BME280;10804;48.988;2.408;2024-03-23T11:53:08;100892.97;;;14.38;70.55
21290;BME280;10804;48.988;2.408;2024-03-23T11:55:39;100905.19;;;14.39;70.46
21290;BME280;10804;48.988;2.408;2024-03-23T11:58:07;100890.22;;;14.41;70.26
21290;BME280;10804;48.988;2.408;2024-03-23T12:00:35;100884.88;;;14.44;70.49
21290;BME280;10804;48.988;2.408;2024-03-23T12:03:01;100864.66;;;14.46;70.30
21290;BME280;10804;48.988;2.408;2024-03-23T12:05:29;100862.00;;;14.48;70.20
21290;BME280;10804;48.988;2.408;2024-03-23T12:07:55;100849.53;;;14.53;70.18
21290;BME280;10804;48.988;2.408;2024-03-23T12:10:23;100848.59;;;14.54;70.27
21290;BME280;10804;48.988;2.408;2024-03-23T12:12:59;100844.91;;;14.59;69.93
21290;BME280;10804;48.988;2.408;2024-03-23T12:15:29;100831.63;;;14.62;70.13
21290;BME280;10804;48.988;2.408;2024-03-23T12:18:06;100837.56;;;14.67;69.99
21290;BME280;10804;48.988;2.408;2024-03-23T12:20:34;100850.44;;;14.73;70.12
21290;BME280;10804;48.988;2.408;2024-03-23T12:23:07;100855.44;;;14.79;69.80
21290;BME280;10804;48.988;2.408;2024-03-23T12:25:36;100858.72;;;14.84;69.75
21290;BME280;10804;48.988;2.408;2024-03-23T12:28:02;100858.53;;;14.89;69.75
21290;BME280;10804;48.988;2.408;2024-03-23T12:30:35;100852.19;;;14.94;69.76
21290;BME280;10804;48.988;2.408;2024-03-23T12:33:02;100852.81;;;15.01;69.57
21290;BME280;10804;48.988;2.408;2024-03-23T12:35:30;100852.50;;;15.07;69.67
21290;BME280;10804;48.988;2.408;2024-03-23T12:37:56;100857.53;;;15.13;69.24
21290;BME280;10804;48.988;2.408;2024-03-23T12:40:24;100858.13;;;15.19;69.12
21290;BME280;10804;48.988;2.408;2024-03-23T12:42:50;100845.53;;;15.27;68.96
21290;BME280;10804;48.988;2.408;2024-03-23T12:45:17;100832.94;;;15.35;68.72
21290;BME280;10804;48.988;2.408;2024-03-23T12:47:45;100831.81;;;15.41;68.60
21290;BME280;10804;48.988;2.408;2024-03-23T12:50:12;100804.41;;;15.46;68.33
21290;BME280;10804;48.988;2.408;2024-03-23T12:52:39;100808.41;;;15.55;68.67
21290;BME280;10804;48.988;2.408;2024-03-23T12:55:07;100793.97;;;15.63;68.19
21290;BME280;10804;48.988;2.408;2024-03-23T12:57:33;100784.84;;;15.72;68.05
21290;BME280;10804;48.988;2.408;2024-03-23T13:00:00;100780.00;;;15.81;67.59
21290;BME280;10804;48.988;2.408;2024-03-23T13:02:27;100778.50;;;15.94;67.46
21290;BME280;10804;48.988;2.408;2024-03-23T13:04:55;100767.25;;;16.09;67.72
21290;BME280;10804;48.988;2.408;2024-03-23T13:07:22;100775.56;;;16.18;67.20
21290;BME280;10804;48.988;2.408;2024-03-23T13:09:50;100768.09;;;16.28;67.11
21290;BME280;10804;48.988;2.408;2024-03-23T13:12:17;100768.53;;;16.37;66.62
21290;BME280;10804;48.988;2.408;2024-03-23T13:14:46;100767.16;;;16.47;66.49
21290;BME280;10804;48.988;2.408;2024-03-23T13:17:16;100761.59;;;16.53;66.45
21290;BME280;10804;48.988;2.408;2024-03-23T13:19:44;100753.31;;;16.61;66.02
21290;BME280;10804;48.988;2.408;2024-03-23T13:22:12;100763.53;;;16.67;66.00
21290;BME280;10804;48.988;2.408;2024-03-23T13:24:39;100765.06;;;16.71;65.94
21290;BME280;10804;48.988;2.408;2024-03-23T13:27:05;100749.91;;;16.76;65.67
21290;BME280;10804;48.988;2.408;2024-03-23T13:29:34;100761.91;;;16.81;65.50
21290;BME280;10804;48.988;2.408;2024-03-23T13:32:00;100754.63;;;16.86;65.33
21290;BME280;10804;48.988;2.408;2024-03-23T13:34:28;100750.06;;;16.90;64.96
21290;BME280;10804;48.988;2.408;2024-03-23T13:36:55;100739.81;;;17.01;65.19
21290;BME280;10804;48.988;2.408;2024-03-23T13:39:25;100735.00;;;17.09;65.15
21290;BME280;10804;48.988;2.408;2024-03-23T13:41:53;100738.94;;;17.17;65.02
21290;BME280;10804;48.988;2.408;2024-03-23T13:44:22;100735.13;;;17.23;64.73
21290;BME280;10804;48.988;2.408;2024-03-23T13:46:48;100738.22;;;17.31;64.46
21290;BME280;10804;48.988;2.408;2024-03-23T13:49:25;100728.00;;;17.42;64.49